Aérodrome :
LOGIN :

S'inscrire | Disclaimer

   EN    FR    IT 

 










Légende :    VFR   VFR Marginal   IFR   IFR Intensif   IFR Très Intensif
Visi : 
Plafond : 
>= 8 km
>= 3000ft
5 à 8 km
1000 à 3000 ft
1500m à 5 km
500 à 1000 ft
800 à 1500m
200 à 500 ft
< 800m
< 200 ft
Symboles :   Orages  Brouillard  Fortes neiges  Fortes précipitations  Vent > 20 kt
SIGMETs :   Divers  Orages  Givrage  Turbulence  Onde Orograph.  Cendres Volcan.







- Altitude de l'aérodrome : 306 ft
- Code IATA : EMA
- Voir les cartes d'approche


EGNX - Nottingham East Midlands

DERNIER METAR :
  • 210250Z 19012KT 9999 SCT027 13/12 Q0998

METARs EXPIRÉS :
  • 210220Z 19014KT 9999 SCT028 13/12 Q0998 RERA
  • 210150Z 18016KT 9999 SCT009 BKN018 13/12 Q0998 RERA
  • 210120Z 17016KT 6000 -RA BKN008 BKN012 13/12 Q0998 RERA
  • 210050Z 16015KT 9999 -RA BKN012 BKN031 13/12 Q0999
  • 210020Z 16015KT 9999 -RA SCT013 SCT019 12/11 Q0999 RERA

TAF TAF EGNX
Valide du 21 à 00h jusqu'au 22 à 00h UTC


202302Z 2100/2124 16015G25KT 6000 RA BKN008
BECMG 2100/2102 19012KT 9999 NSW SCT030
PROB30
TEMPO 2102/2105 20016G26KT 7000 SHRA
BECMG 2105/2108 20020G30KT
TEMPO 2108/2117 7000 SHRA
PROB30
TEMPO 2108/2117 22030G42KT 4000 +SHRA BKN014CB
BECMG 2117/2120 24015KT
PROB30
TEMPO 2117/2124 26018G28KT 7000 SHRA
ATIS : +44 1332 852 852 (ext 3201)
Pas de NOTAMs connus pour ce terrain.
1 SIGMET publié pour la FIR London (EGTT) :
 
Turbulence forte
EGTT SIGMET 01 VALID 210200/210600 EGRR
EGTT LONDON FIR SEV TURB FCST WI N4850 W00800 - N5100 W00800 - N5220 W00530 - N5340 W00530 - N5340 W00400 - N4937 W00400 - N4850 W00800 SFC/FL060 MOV E 20KT NC=



MET'MAP, la Météo Aéronautique d'un coup d'oeil ! - Copyright ORBIFLY Décembre 2007 - Disclaimer

ORBIFLY MET'MAP TEAM :

Programmation & Développement : Alexandra Zaïnal
Conception & Développement : Baudouin d'Aumeries
Co-Programmation & Développement : Marc-Olivier Méhu
Soutien technique & logistique : Manuel Goepfert

Contact : metmap@orbifly.com




SOURCES & CREDITS :

   NOAA